createdAt,value
2023-01-19T00:02:07.087Z,74.48
2023-01-19T00:04:48.131Z,74.53
2023-01-19T00:07:24.169Z,74.37
2023-01-19T00:09:57.146Z,74.41
2023-01-19T00:12:30.124Z,74.56
2023-01-19T00:15:03.541Z,74.57
2023-01-19T00:17:37.926Z,74.61
2023-01-19T00:20:12.222Z,74.55
2023-01-19T00:22:45.159Z,74.75
2023-01-19T00:25:18.403Z,74.70
2023-01-19T00:27:51.357Z,74.55
2023-01-19T00:30:24.343Z,74.62
2023-01-19T00:32:59.623Z,74.71
2023-01-19T00:35:33.125Z,74.60
2023-01-19T00:38:06.310Z,74.70
2023-01-19T00:40:39.706Z,74.68
2023-01-19T00:43:12.656Z,74.71
2023-01-19T00:45:46.918Z,74.75
2023-01-19T00:48:21.292Z,74.71
2023-01-19T00:50:54.248Z,74.81
2023-01-19T00:53:29.156Z,74.88
2023-01-19T00:56:02.083Z,74.77
2023-01-19T00:58:35.044Z,74.80
2023-01-19T01:01:08.143Z,74.75
2023-01-19T01:03:42.864Z,74.63
2023-01-19T01:06:17.720Z,74.86
2023-01-19T01:08:50.863Z,74.87
2023-01-19T01:11:23.856Z,74.70
2023-01-19T01:13:56.885Z,74.87
2023-01-19T01:16:31.949Z,74.87
2023-01-19T01:19:06.376Z,74.81
2023-01-19T01:21:39.605Z,74.90
2023-01-19T01:24:12.644Z,74.74
2023-01-19T01:26:46.034Z,74.54
2023-01-19T01:29:19.012Z,74.53
2023-01-19T01:31:52.130Z,74.58
2023-01-19T01:34:26.573Z,74.52
2023-01-19T01:36:59.552Z,74.36
2023-01-19T01:39:32.517Z,74.39
2023-01-19T01:42:15.476Z,74.39
2023-01-19T01:44:51.210Z,74.44
2023-01-19T01:47:32.094Z,74.48
2023-01-19T01:50:14.325Z,74.44
2023-01-19T01:53:06.300Z,74.49
2023-01-19T01:55:47.879Z,74.37
2023-01-19T01:58:20.870Z,74.56
2023-01-19T02:01:19.779Z,74.50
2023-01-19T02:03:54.065Z,74.57
2023-01-19T02:06:30.320Z,74.49
2023-01-19T02:09:29.271Z,74.63
2023-01-19T02:12:19.540Z,74.56
2023-01-19T02:14:52.532Z,74.54
2023-01-19T02:17:25.743Z,74.44
2023-01-19T02:19:59.006Z,74.52
2023-01-19T02:22:39.007Z,74.52
2023-01-19T02:25:13.631Z,74.44
2023-01-19T02:27:47.101Z,74.32
2023-01-19T02:30:20.512Z,74.50
2023-01-19T02:32:53.445Z,74.41
2023-01-19T02:35:27.033Z,74.31
2023-01-19T02:38:00.318Z,74.48
2023-01-19T02:40:35.091Z,74.39
2023-01-19T02:43:09.203Z,74.39
2023-01-19T02:45:43.568Z,74.38
2023-01-19T02:48:18.016Z,74.26
2023-01-19T02:50:55.027Z,74.19
2023-01-19T02:54:03.773Z,74.18
2023-01-19T02:56:50.322Z,74.18
2023-01-19T02:59:45.797Z,73.96
2023-01-19T03:02:27.791Z,74.10
2023-01-19T03:05:13.942Z,74.02
2023-01-19T03:07:57.598Z,74.07
2023-01-19T03:10:39.357Z,74.06
2023-01-19T03:13:20.430Z,74.13
2023-01-19T03:15:58.052Z,73.97
2023-01-19T03:18:34.578Z,73.90
2023-01-19T03:21:08.969Z,73.76
2023-01-19T03:23:48.626Z,73.62
2023-01-19T03:26:27.245Z,73.66
2023-01-19T03:29:04.620Z,73.69
2023-01-19T03:31:39.338Z,73.86
2023-01-19T03:34:14.670Z,74.03
2023-01-19T03:36:52.211Z,73.83
2023-01-19T03:39:27.799Z,73.67
2023-01-19T03:42:04.139Z,73.74
2023-01-19T03:44:40.683Z,73.81
2023-01-19T03:47:15.905Z,73.86
2023-01-19T03:49:50.902Z,73.80
2023-01-19T03:52:32.557Z,73.81
2023-01-19T03:55:07.297Z,73.85
2023-01-19T03:57:40.324Z,73.77
2023-01-19T04:00:16.383Z,73.81
2023-01-19T04:02:49.368Z,73.76
2023-01-19T04:05:22.416Z,73.70
2023-01-19T04:07:55.347Z,73.62
2023-01-19T04:10:28.287Z,73.62
2023-01-19T04:13:03.085Z,73.62
2023-01-19T04:15:37.591Z,73.59
2023-01-19T04:18:10.561Z,73.56
2023-01-19T04:20:43.540Z,73.60
2023-01-19T04:23:16.526Z,73.64
2023-01-19T04:25:49.488Z,73.48
2023-01-19T04:28:22.467Z,73.57
2023-01-19T04:30:56.998Z,73.76
2023-01-19T04:33:30.448Z,73.51
2023-01-19T04:36:04.085Z,73.74
2023-01-19T04:38:37.226Z,73.74
2023-01-19T04:41:10.247Z,73.66
2023-01-19T04:43:43.250Z,73.65
2023-01-19T04:46:17.771Z,73.71
2023-01-19T04:48:50.976Z,73.63
2023-01-19T04:51:24.015Z,73.73
2023-01-19T04:53:57.801Z,73.90
2023-01-19T04:56:30.795Z,73.73
2023-01-19T04:59:03.816Z,73.56
2023-01-19T05:01:38.215Z,73.71
2023-01-19T05:04:11.186Z,73.79
2023-01-19T05:06:44.186Z,73.96
2023-01-19T05:09:17.134Z,73.92
2023-01-19T05:11:50.075Z,73.89
2023-01-19T05:14:23.338Z,73.75
2023-01-19T05:16:58.102Z,73.90
2023-01-19T05:19:31.156Z,73.83
2023-01-19T05:22:05.037Z,73.73
2023-01-19T05:24:38.070Z,73.74
2023-01-19T05:27:11.389Z,73.70
2023-01-19T05:29:44.356Z,73.72
2023-01-19T05:32:18.667Z,73.72
2023-01-19T05:34:51.648Z,73.62
2023-01-19T05:37:24.613Z,73.52
2023-01-19T05:39:57.589Z,73.67
2023-01-19T05:42:32.691Z,73.62
2023-01-19T05:45:07.230Z,73.57
2023-01-19T05:47:41.584Z,73.72
2023-01-19T05:50:14.757Z,73.40
2023-01-19T05:52:48.045Z,73.53
2023-01-19T05:55:21.295Z,73.44
2023-01-19T05:57:54.340Z,73.57
2023-01-19T06:00:30.006Z,73.50
2023-01-19T06:03:06.499Z,73.46
2023-01-19T06:05:39.714Z,73.36
2023-01-19T06:08:12.710Z,73.41
2023-01-19T06:10:45.805Z,73.42
2023-01-19T06:13:19.192Z,73.11
2023-01-19T06:15:58.150Z,73.25
2023-01-19T06:18:32.535Z,73.40
2023-01-19T06:21:07.394Z,73.42
2023-01-19T06:23:40.342Z,73.40
2023-01-19T06:26:13.577Z,73.49
2023-01-19T06:28:46.702Z,73.43
2023-01-19T06:31:19.826Z,73.45
2023-01-19T06:33:54.215Z,73.36
2023-01-19T06:36:27.230Z,73.47
2023-01-19T06:39:00.479Z,73.39
2023-01-19T06:41:33.835Z,73.39
2023-01-19T06:44:06.904Z,73.41
2023-01-19T06:46:39.824Z,73.25
2023-01-19T06:49:14.162Z,73.32
2023-01-19T06:51:47.136Z,73.31
2023-01-19T06:54:20.204Z,73.25
2023-01-19T06:56:53.729Z,73.23
2023-01-19T06:59:26.729Z,73.25
2023-01-19T07:01:59.908Z,73.36
2023-01-19T07:04:54.098Z,73.17
2023-01-19T07:07:27.242Z,73.16
2023-01-19T07:10:00.165Z,73.18
2023-01-19T07:12:33.791Z,73.39
2023-01-19T07:15:09.513Z,73.33
2023-01-19T07:17:42.733Z,73.39
2023-01-19T07:20:19.535Z,73.23
2023-01-19T07:22:57.377Z,73.23
2023-01-19T07:25:30.412Z,73.13
2023-01-19T07:28:04.499Z,73.26
2023-01-19T07:30:37.592Z,73.18
2023-01-19T07:33:10.728Z,73.27
2023-01-19T07:35:49.320Z,73.22
2023-01-19T07:38:22.918Z,73.15
2023-01-19T07:41:01.473Z,73.17
2023-01-19T07:43:35.049Z,73.04
2023-01-19T07:46:08.501Z,72.84
2023-01-19T07:48:44.491Z,72.76
2023-01-19T07:51:19.048Z,73.03
2023-01-19T07:53:52.281Z,73.12
2023-01-19T07:56:27.843Z,73.27
2023-01-19T07:59:00.940Z,73.34
2023-01-19T08:01:34.119Z,73.47
2023-01-19T08:04:07.280Z,73.50
2023-01-19T08:06:42.072Z,73.46
2023-01-19T08:09:15.031Z,73.41
2023-01-19T08:11:48.113Z,73.44
2023-01-19T08:14:21.176Z,73.43
2023-01-19T08:16:54.176Z,73.37
2023-01-19T08:19:27.360Z,73.31
2023-01-19T08:22:02.443Z,73.22
2023-01-19T08:24:35.409Z,73.20
2023-01-19T08:27:09.841Z,73.31
2023-01-19T08:29:42.877Z,73.29
2023-01-19T08:32:16.070Z,73.23
2023-01-19T08:34:49.142Z,73.35
2023-01-19T08:37:24.818Z,73.42
2023-01-19T08:39:57.775Z,73.20
2023-01-19T08:42:30.887Z,73.18
2023-01-19T08:45:03.990Z,73.22
2023-01-19T08:47:36.989Z,73.09
2023-01-19T08:50:11.931Z,73.04
2023-01-19T08:52:46.286Z,73.19
2023-01-19T08:55:19.463Z,73.19
2023-01-19T08:57:53.643Z,73.12
2023-01-19T09:00:27.878Z,73.15
2023-01-19T09:03:02.209Z,73.05
2023-01-19T09:05:38.950Z,73.00
2023-01-19T09:08:15.234Z,73.00
2023-01-19T09:10:49.834Z,72.96
2023-01-19T09:13:28.215Z,73.06
2023-01-19T09:16:03.746Z,72.94
2023-01-19T09:18:37.121Z,72.97
2023-01-19T09:21:10.560Z,73.04
2023-01-19T09:23:45.300Z,72.96
2023-01-19T09:26:18.294Z,72.85
2023-01-19T09:28:51.335Z,72.86
2023-01-19T09:31:24.597Z,72.78
2023-01-19T09:33:57.824Z,72.95
2023-01-19T09:36:32.449Z,72.77
2023-01-19T09:39:06.790Z,72.77
2023-01-19T09:41:43.967Z,72.79
2023-01-19T09:44:20.678Z,72.95
2023-01-19T09:46:53.669Z,72.88
2023-01-19T09:49:32.369Z,72.88
2023-01-19T09:52:05.462Z,72.95
2023-01-19T09:54:45.377Z,72.98
2023-01-19T09:57:18.391Z,72.89
2023-01-19T09:59:51.803Z,73.05
2023-01-19T10:02:36.856Z,73.06
2023-01-19T10:05:25.412Z,73.05
2023-01-19T10:08:13.702Z,73.12
2023-01-19T10:10:52.943Z,72.96
2023-01-19T10:13:40.613Z,73.06
2023-01-19T10:16:31.556Z,73.10
2023-01-19T10:19:19.122Z,73.00
2023-01-19T10:21:54.297Z,72.87
2023-01-19T10:24:33.168Z,72.85
2023-01-19T10:27:22.058Z,72.82
2023-01-19T10:29:55.687Z,72.85
2023-01-19T10:32:32.318Z,73.01
2023-01-19T10:35:21.680Z,72.86
2023-01-19T10:37:57.788Z,72.64
2023-01-19T10:40:37.432Z,72.69
2023-01-19T10:43:38.494Z,72.58
2023-01-19T10:46:22.545Z,72.68
2023-01-19T10:48:57.124Z,72.43
2023-01-19T10:51:30.727Z,72.62
2023-01-19T10:54:05.737Z,72.64
2023-01-19T10:56:39.884Z,72.46
2023-01-19T10:59:27.498Z,72.23
2023-01-19T11:02:17.022Z,72.36
2023-01-19T11:04:52.977Z,72.16
2023-01-19T11:07:30.186Z,72.36
2023-01-19T11:10:24.005Z,72.31
2023-01-19T11:13:03.342Z,72.35
2023-01-19T11:15:42.305Z,72.25
2023-01-19T11:18:27.055Z,72.32
2023-01-19T11:21:02.990Z,72.35
2023-01-19T11:23:42.078Z,72.30
2023-01-19T11:26:17.187Z,72.17
2023-01-19T11:28:53.189Z,72.25
2023-01-19T11:31:33.941Z,72.34
2023-01-19T11:34:26.359Z,72.22
2023-01-19T11:37:01.989Z,72.13
2023-01-19T11:39:48.274Z,72.43
2023-01-19T11:42:21.478Z,72.25
2023-01-19T11:45:03.011Z,72.28
2023-01-19T11:47:42.447Z,72.21
2023-01-19T11:50:24.753Z,72.06
2023-01-19T11:53:02.568Z,72.02
2023-01-19T11:55:40.840Z,72.17
2023-01-19T11:58:16.916Z,72.18
2023-01-19T12:00:53.157Z,71.96
2023-01-19T12:03:31.757Z,72.03
2023-01-19T12:06:10.941Z,72.13
2023-01-19T12:08:47.984Z,72.05
2023-01-19T12:11:24.964Z,72.10
2023-01-19T12:13:58.007Z,71.89
2023-01-19T12:16:32.985Z,72.04
2023-01-19T12:19:11.989Z,71.97
2023-01-19T12:21:48.996Z,71.94
2023-01-19T12:24:31.016Z,72.02
2023-01-19T12:27:16.172Z,72.02
2023-01-19T12:29:49.930Z,72.01
2023-01-19T12:32:34.857Z,71.72
2023-01-19T12:35:31.985Z,71.84
2023-01-19T12:38:33.728Z,71.83
2023-01-19T12:41:22.349Z,72.02
2023-01-19T12:44:30.557Z,71.78
2023-01-19T12:47:26.605Z,71.95
2023-01-19T12:50:06.899Z,71.90
2023-01-19T12:52:47.960Z,71.89
2023-01-19T12:55:30.999Z,71.96
2023-01-19T12:58:08.224Z,71.83
2023-01-19T13:00:43.445Z,71.98
2023-01-19T13:03:46.334Z,71.70
2023-01-19T13:06:19.336Z,71.87
2023-01-19T13:09:02.117Z,71.96
2023-01-19T13:12:00.731Z,71.95
2023-01-19T13:14:37.573Z,71.87
2023-01-19T13:17:33.082Z,71.92
2023-01-19T13:20:20.010Z,71.88
2023-01-19T13:23:18.088Z,71.85
2023-01-19T13:25:54.743Z,71.89
2023-01-19T13:28:34.199Z,71.80
2023-01-19T13:31:09.917Z,71.69
2023-01-19T13:33:50.733Z,71.62
2023-01-19T13:36:31.621Z,71.68
2023-01-19T13:39:07.720Z,71.59
2023-01-19T13:41:42.514Z,71.49
2023-01-19T13:44:23.739Z,71.75
2023-01-19T13:46:59.724Z,71.68
2023-01-19T13:49:36.633Z,71.60
2023-01-19T13:52:15.234Z,71.58
2023-01-19T13:54:49.998Z,71.69
2023-01-19T13:57:28.369Z,71.66
2023-01-19T14:00:18.076Z,71.77
2023-01-19T14:02:57.398Z,71.73
2023-01-19T14:05:32.609Z,71.68
2023-01-19T14:08:13.060Z,71.72
2023-01-19T14:10:48.194Z,71.78
2023-01-19T14:13:26.421Z,71.89
2023-01-19T14:16:05.859Z,71.94
2023-01-19T14:18:38.872Z,71.92
2023-01-19T14:21:13.781Z,71.86
2023-01-19T14:23:49.080Z,71.91
2023-01-19T14:26:42.296Z,71.96
2023-01-19T14:29:26.499Z,72.09
2023-01-19T14:32:12.412Z,71.80
2023-01-19T14:34:46.954Z,71.80
2023-01-19T14:37:23.223Z,72.02
2023-01-19T14:40:04.513Z,72.05
2023-01-19T14:42:45.067Z,71.95
2023-01-19T14:45:21.013Z,72.03
2023-01-19T14:47:59.642Z,72.25
2023-01-19T14:50:35.733Z,72.09
2023-01-19T14:53:18.138Z,72.19
2023-01-19T14:55:56.682Z,72.17
2023-01-19T14:58:33.461Z,72.13
2023-01-19T15:01:06.679Z,72.31
2023-01-19T15:03:45.579Z,72.14
2023-01-19T15:06:21.396Z,72.21
2023-01-19T15:08:54.694Z,72.26
2023-01-19T15:11:31.242Z,72.33
2023-01-19T15:14:04.600Z,72.35
2023-01-19T15:16:37.819Z,72.32
2023-01-19T15:19:15.188Z,72.24
2023-01-19T15:21:48.329Z,72.47
2023-01-19T15:24:21.323Z,72.19
2023-01-19T15:26:54.314Z,72.27
2023-01-19T15:29:29.192Z,72.29
2023-01-19T15:32:03.919Z,72.12
2023-01-19T15:34:38.340Z,72.28
2023-01-19T15:37:11.426Z,72.11
2023-01-19T15:39:44.438Z,72.35
2023-01-19T15:42:17.506Z,72.29
2023-01-19T15:44:50.505Z,72.42
2023-01-19T15:47:23.497Z,72.25
2023-01-19T15:49:57.895Z,72.33
2023-01-19T15:52:30.902Z,72.25
2023-01-19T15:55:09.968Z,72.33
2023-01-19T15:57:43.231Z,72.40
2023-01-19T16:00:17.317Z,72.26
2023-01-19T16:02:52.112Z,72.35
2023-01-19T16:05:41.319Z,72.33
2023-01-19T16:08:15.364Z,72.09
2023-01-19T16:10:48.560Z,72.40
2023-01-19T16:13:21.708Z,72.34
2023-01-19T16:15:54.870Z,72.39
2023-01-19T16:18:27.956Z,72.38
2023-01-19T16:21:02.797Z,72.47
2023-01-19T16:23:35.910Z,72.47
2023-01-19T16:26:23.758Z,72.51
2023-01-19T16:29:08.008Z,72.58
2023-01-19T16:31:42.000Z,72.11
2023-01-19T16:34:15.100Z,72.27
2023-01-19T16:36:50.214Z,72.41
2023-01-19T16:39:23.191Z,72.53
2023-01-19T16:41:56.191Z,72.35
2023-01-19T16:44:29.297Z,72.56
2023-01-19T16:47:04.410Z,72.52
2023-01-19T16:49:40.336Z,72.86
2023-01-19T16:52:14.711Z,72.84
2023-01-19T16:54:47.769Z,72.87
2023-01-19T16:57:27.008Z,72.68
2023-01-19T17:00:00.133Z,72.89
2023-01-19T17:02:36.455Z,73.03
2023-01-19T17:07:37.897Z,73.23
2023-01-19T17:10:12.550Z,73.32
2023-01-19T17:12:45.851Z,73.03
2023-01-19T17:15:18.990Z,73.12
2023-01-19T17:17:52.040Z,73.14
2023-01-19T17:20:25.044Z,73.06
2023-01-19T17:22:59.601Z,73.06
2023-01-19T17:25:32.847Z,73.05
2023-01-19T17:28:06.275Z,72.96
2023-01-19T17:30:39.447Z,73.04
2023-01-19T17:33:12.751Z,73.06
2023-01-19T17:35:46.900Z,73.01
2023-01-19T17:38:26.712Z,72.95
2023-01-19T17:41:00.173Z,73.02
2023-01-19T17:43:33.434Z,73.17
2023-01-19T17:46:06.966Z,72.96
2023-01-19T17:48:40.872Z,73.10
2023-01-19T17:51:14.053Z,72.71
2023-01-19T17:53:48.609Z,72.99
2023-01-19T17:56:26.236Z,73.10
2023-01-19T17:59:00.156Z,73.09
2023-01-19T18:01:34.423Z,73.19
2023-01-19T18:04:08.451Z,73.23
2023-01-19T18:06:41.377Z,72.98
2023-01-19T18:09:16.168Z,73.01
2023-01-19T18:11:49.185Z,73.24
2023-01-19T18:14:22.205Z,73.24
2023-01-19T18:16:55.204Z,73.26
2023-01-19T18:19:37.423Z,73.48
2023-01-19T18:22:10.414Z,73.46
2023-01-19T18:24:45.724Z,73.52
2023-01-19T18:27:43.351Z,73.64
2023-01-19T18:30:17.392Z,73.70
2023-01-19T18:32:51.603Z,73.72
2023-01-19T18:35:24.570Z,73.68
2023-01-19T18:37:58.603Z,73.56
2023-01-19T18:40:33.037Z,73.68
2023-01-19T18:43:06.065Z,73.70
2023-01-19T18:45:41.771Z,73.65
2023-01-19T18:48:16.766Z,73.79
2023-01-19T18:50:50.968Z,73.72
2023-01-19T18:53:24.453Z,73.76
2023-01-19T18:56:01.919Z,73.83
2023-01-19T18:58:38.115Z,73.83
2023-01-19T19:01:22.973Z,73.79
2023-01-19T19:03:57.014Z,73.76
2023-01-19T19:06:29.850Z,73.42
2023-01-19T19:09:03.449Z,73.33
2023-01-19T19:11:37.867Z,73.52
2023-01-19T19:14:11.177Z,73.59
2023-01-19T19:16:44.194Z,73.60
2023-01-19T19:19:17.296Z,73.62
2023-01-19T19:21:52.126Z,73.47
2023-01-19T19:24:25.153Z,73.55
2023-01-19T19:26:59.579Z,73.44
2023-01-19T19:29:33.653Z,73.51
2023-01-19T19:32:09.796Z,73.47
2023-01-19T19:34:47.777Z,73.58
2023-01-19T19:37:22.921Z,73.49
2023-01-19T19:39:57.693Z,73.55
2023-01-19T19:42:32.060Z,73.49
2023-01-19T19:45:05.576Z,73.33
2023-01-19T19:47:38.652Z,73.31
2023-01-19T19:50:12.816Z,73.29
2023-01-19T19:52:46.152Z,73.29
2023-01-19T19:55:19.405Z,73.38
2023-01-19T19:57:55.286Z,73.45
2023-01-19T20:00:30.233Z,73.39
2023-01-19T20:03:03.409Z,73.40
2023-01-19T20:05:36.989Z,73.32
2023-01-19T20:08:10.124Z,73.37
2023-01-19T20:10:44.409Z,73.50
2023-01-19T20:13:19.295Z,73.46
2023-01-19T20:15:53.892Z,73.41
2023-01-19T20:18:27.210Z,73.50
2023-01-19T20:21:02.535Z,73.45
2023-01-19T20:23:35.720Z,73.35
2023-01-19T20:26:14.879Z,73.40
2023-01-19T20:28:49.435Z,73.32
2023-01-19T20:31:24.860Z,73.49
2023-01-19T20:33:59.766Z,73.41
2023-01-19T20:36:38.703Z,73.35
2023-01-19T20:39:22.395Z,73.42
2023-01-19T20:41:55.873Z,73.42
2023-01-19T20:44:30.377Z,73.22
2023-01-19T20:47:11.381Z,73.35
2023-01-19T20:49:44.534Z,73.25
2023-01-19T20:52:17.686Z,73.22
2023-01-19T20:54:53.200Z,73.31
2023-01-19T20:57:27.711Z,73.27
2023-01-19T21:00:04.242Z,73.34
2023-01-19T21:02:37.329Z,73.33
2023-01-19T21:05:11.274Z,73.22
2023-01-19T21:07:44.491Z,73.11
2023-01-19T21:10:22.753Z,73.00
2023-01-19T21:12:56.058Z,73.08
2023-01-19T21:15:30.714Z,73.15
2023-01-19T21:18:03.840Z,73.12
2023-01-19T21:20:37.008Z,73.05
2023-01-19T21:23:10.039Z,73.10
2023-01-19T21:25:50.882Z,73.13
2023-01-19T21:28:24.831Z,73.11
2023-01-19T21:30:59.201Z,72.79
2023-01-19T21:33:33.092Z,72.82
2023-01-19T21:36:06.292Z,72.68
2023-01-19T21:38:41.062Z,72.71
2023-01-19T21:41:17.274Z,72.88
2023-01-19T21:43:50.306Z,72.95
2023-01-19T21:46:29.051Z,73.02
2023-01-19T21:49:04.059Z,73.07
2023-01-19T21:51:38.055Z,73.00
2023-01-19T21:54:10.845Z,72.85
2023-01-19T21:56:44.265Z,73.04
2023-01-19T21:59:20.234Z,73.08
2023-01-19T22:01:55.750Z,73.21
2023-01-19T22:04:28.831Z,73.22
2023-01-19T22:07:01.816Z,73.27
2023-01-19T22:09:35.211Z,73.19
2023-01-19T22:12:09.945Z,73.25
2023-01-19T22:14:43.016Z,73.26
2023-01-19T22:17:20.447Z,73.31
2023-01-19T22:19:53.451Z,73.46
2023-01-19T22:22:28.607Z,73.51
2023-01-19T22:25:01.862Z,73.59
2023-01-19T22:27:34.863Z,73.60
2023-01-19T22:30:10.564Z,73.58
2023-01-19T22:32:47.517Z,73.74
2023-01-19T22:35:21.262Z,73.63
2023-01-19T22:37:54.315Z,73.61
2023-01-19T22:40:30.356Z,73.66
2023-01-19T22:43:03.516Z,73.69
2023-01-19T22:45:37.001Z,73.55
2023-01-19T22:48:11.299Z,73.89
2023-01-19T22:50:44.263Z,73.71
2023-01-19T22:53:17.286Z,73.66
2023-01-19T22:55:50.331Z,73.58
2023-01-19T22:58:23.307Z,73.61
2023-01-19T23:00:56.425Z,73.70
2023-01-19T23:03:31.951Z,73.72
2023-01-19T23:06:06.096Z,73.79
2023-01-19T23:08:39.538Z,73.79
2023-01-19T23:11:14.002Z,73.98
2023-01-19T23:13:47.090Z,74.11
2023-01-19T23:16:20.649Z,74.06
2023-01-19T23:18:55.890Z,74.02
2023-01-19T23:21:30.731Z,74.10
2023-01-19T23:24:05.528Z,74.18
2023-01-19T23:26:38.972Z,74.20
2023-01-19T23:29:14.636Z,74.04
2023-01-19T23:31:49.161Z,73.90
2023-01-19T23:34:23.719Z,74.08
2023-01-19T23:36:56.924Z,74.13
2023-01-19T23:39:30.030Z,73.74
2023-01-19T23:42:03.594Z,74.01
2023-01-19T23:44:36.847Z,73.93
2023-01-19T23:47:09.789Z,74.10
2023-01-19T23:49:44.149Z,73.89
2023-01-19T23:52:17.138Z,73.79
2023-01-19T23:54:50.097Z,73.76
2023-01-19T23:57:23.095Z,73.82
2023-01-19T23:59:56.071Z,73.64
